Terminal Aerodrome Forecast
Issued by NWS

Home | Current Version | Previous Version | Text Only | Print | Product List | Glossary On
Versions: 1 2 3 4 5 6 7 8 9 10 11 12 13 14 15 16 17 18 19
000
FTUS46 KSEW 061700
TAFOLM
TAF
KOLM 061720Z 0618/0718 00000KT P6SM SCT008 BKN040
     FM062100 34007KT P6SM VCSH BKN040
     FM070400 00000KT P6SM SKC
     FM071000 00000KT 1/2SM FG VV002
     FM071600 02005KT P6SM SCT015=

USA.gov is the U.S. government's official web portal to all federal, state and local government web resources and services.